EGNXEGCN

Guest
Details From EGNX - East Midlands
To EGCN - Doncaster Sheffield
Flight Number -
Tags generated
Created
Modified
Stats Distance 40 nm / 75 km
Max Altitude 1,600 ft / 488 m
Waypoints 3
Social Downloads 1
Likes 0
Share VATSIM

Download

Looking for another format? Having issues loading an existing format? Contact us
Advertisement - Login to hide

Notes

Basic altitude profile: - Ascent Rate: 1500ft/min - Ascent Speed: 270kts - Cruise Altitude: 2000ft - Cruise Speed: 350kts - Descent Rate: 2000ft/min - Descent Speed: 230kts

Route

EGNX ARTIX EGCN

ID Type Via Altitude Latitude Longitude Leg Dist Tot Dist Heading (true) Name
O EGNX APT - 0 ft / 0 m 52.83100˚ -1.32815˚ - 0 nm - East Midlands
ARTIX FIX - 1,600 ft / 488 m 53.39500˚ -1.01917˚ 35 nm 35 nm 18° / 18° -
O EGCN APT - 0 ft / 0 m 53.47465˚ -1.00447˚ 4 nm 40 nm 6° / 6° Doncaster Sheffield

Altitude Profile

Advertisement - Login to hide

EGNX

Details ICAO EGNX (EMA)
Name East Midlands
Region United Kingdom
Timezone Europe/London (UTC+1.0)
Stats Elevation 306 ft / 93 m (AMSL)
Location 52.830999° -1.328155°
Runways 1
Magnetic Variation 0.967° W

METAR

EGNX 240250Z 03009KT 350V070 9999 BKN009 08/07 Q1024

Decode

TAF

TAF EGNX 232259Z 2400/2424 04012KT 9999 SCT006 BKN010 TEMPO 2400/2408 6000 BKN006 PROB40 2408/2411 FEW012 BECMG 2411/2413 CAVOK BECMG 2420/2423 SCT006 BKN040 PROB30 TEMPO 2420/2424 3000 +SHRA BKN006 BKN030CB

Decode

Departure Runways

ID Width Length Bearing (true) Bearing (mag) Surface Threshold Offset Overrun Length
09 151 ft / 46 m 9,462 ft / 2,884 m 88.25° 89.22° Asphalt 587 ft / 179 m 92 ft / 28 m
27 151 ft / 46 m 9,462 ft / 2,884 m 268.29° 269.26° Asphalt 423 ft / 129 m 98 ft / 30 m

EGCN

Details ICAO EGCN (DSA)
Name Doncaster Sheffield
Region United Kingdom
Timezone Europe/London (UTC+1.0)
Stats Elevation 55 ft / 17 m (AMSL)
Location 53.474649° -1.004474°
Runways 1
Magnetic Variation 0.929° W

METAR

EGCN 240250Z AUTO 01010KT 9999 OVC007/// 09/08 Q1027

Decode

TAF

TAF EGCN 232259Z 2400/2424 03008KT 9999 BKN008 TEMPO 2400/2409 8000 PROB30 TEMPO 2400/2408 4000 BR BKN004 BECMG 2409/2412 FEW025 PROB30 TEMPO 2421/2424 7000 SHRA

Decode

Destination Runways

ID Width Length Bearing (true) Bearing (mag) Surface Threshold Offset Overrun Length
02 197 ft / 60 m 8,975 ft / 2,736 m 17.62° 18.55° Asphalt 486 ft / 148 m 13 ft / 4 m
20 197 ft / 60 m 8,975 ft / 2,736 m 197.63° 198.56° Asphalt 0 ft / 0 m 0 ft / 0 m

Approach Navaids

Runway Type Ident Frequency Range Bearing (true) Bearing (mag) Slope Elevation
20 Localiser IFNL 110.95 MHz 18 nm / 33 km 197.61° 198.54° - 55 ft / 17 m (AMSL)
20 Glidescope IFNL 110.95 MHz 10 nm / 19 km 197.63° 198.56° 3.00° 55 ft / 17 m (AMSL)
20 DME IFNL 110.95 MHz 18 nm / 33 km - - - 11 ft / 3 m (AMSL)

Popular Alternatives